createdAt,value
2019-02-23T00:00:09.123Z,67.04
2019-02-23T00:02:38.452Z,67.02
2019-02-23T00:05:07.771Z,65.92
2019-02-23T00:07:37.148Z,65.75
2019-02-23T00:10:07.332Z,65.68
2019-02-23T00:12:36.627Z,65.83
2019-02-23T00:15:06.184Z,65.77
2019-02-23T00:17:35.523Z,65.68
2019-02-23T00:20:05.188Z,65.59
2019-02-23T00:22:34.626Z,66.05
2019-02-23T00:25:04.004Z,65.53
2019-02-23T00:27:33.366Z,65.57
2019-02-23T00:30:02.716Z,64.99
2019-02-23T00:32:32.047Z,65.02
2019-02-23T00:35:01.360Z,65.17
2019-02-23T00:37:30.640Z,64.77
2019-02-23T00:39:59.944Z,64.79
2019-02-23T00:42:29.250Z,65.22
2019-02-23T00:44:58.596Z,64.77
2019-02-23T00:47:27.868Z,64.99
2019-02-23T00:49:57.188Z,65.74
2019-02-23T00:52:26.562Z,65.64
2019-02-23T00:54:55.864Z,65.72
2019-02-23T00:57:25.302Z,65.90
2019-02-23T00:59:54.551Z,66.18
2019-02-23T01:02:23.925Z,65.90
2019-02-23T01:04:53.223Z,65.84
2019-02-23T01:07:22.531Z,65.41
2019-02-23T01:09:51.865Z,66.85
2019-02-23T01:12:21.260Z,66.97
2019-02-23T01:14:52.965Z,66.59
2019-02-23T01:17:22.321Z,66.17
2019-02-23T01:19:51.592Z,66.38
2019-02-23T01:22:20.902Z,66.21
2019-02-23T01:24:50.379Z,66.11
2019-02-23T01:27:19.680Z,66.37
2019-02-23T01:29:49.118Z,66.17
2019-02-23T01:32:18.580Z,65.50
2019-02-23T01:34:47.959Z,65.87
2019-02-23T01:37:17.252Z,65.58
2019-02-23T01:39:46.681Z,65.38
2019-02-23T01:42:16.028Z,66.21
2019-02-23T01:44:45.552Z,65.73
2019-02-23T01:47:14.865Z,65.52
2019-02-23T01:49:58.616Z,65.46
2019-02-23T01:52:20.151Z,65.61
2019-02-23T01:54:49.486Z,65.32
2019-02-23T01:57:18.772Z,64.79
2019-02-23T01:59:48.092Z,63.83
2019-02-23T02:02:17.576Z,63.26
2019-02-23T02:04:47.558Z,62.74
2019-02-23T02:07:16.884Z,63.23
2019-02-23T02:09:46.371Z,62.65
2019-02-23T02:12:15.719Z,63.39
2019-02-23T02:14:45.225Z,62.75
2019-02-23T02:17:14.897Z,62.88
2019-02-23T02:19:44.188Z,63.17
2019-02-23T02:22:13.503Z,63.28
2019-02-23T02:24:42.888Z,63.29
2019-02-23T02:27:12.260Z,62.88
2019-02-23T02:29:41.697Z,62.00
2019-02-23T02:32:11.166Z,62.40
2019-02-23T02:34:40.519Z,61.83
2019-02-23T02:37:09.840Z,62.08
2019-02-23T02:39:39.951Z,61.71
2019-02-23T02:42:09.276Z,62.14
2019-02-23T02:44:38.596Z,62.21
2019-02-23T02:47:08.056Z,62.13
2019-02-23T02:49:37.553Z,62.74
2019-02-23T02:52:06.730Z,62.40
2019-02-23T02:54:36.086Z,62.71
2019-02-23T02:57:05.392Z,62.58
2019-02-23T02:59:35.743Z,62.33
2019-02-23T03:02:05.077Z,62.42
2019-02-23T03:04:34.464Z,62.22
2019-02-23T03:07:03.829Z,62.34
2019-02-23T03:09:33.997Z,62.56
2019-02-23T03:12:03.305Z,62.45
2019-02-23T03:14:32.603Z,62.45
2019-02-23T03:17:01.983Z,62.37
2019-02-23T03:19:31.259Z,62.08
2019-02-23T03:22:00.537Z,62.22
2019-02-23T03:24:29.778Z,62.12
2019-02-23T03:26:59.106Z,62.34
2019-02-23T03:29:28.527Z,62.60
2019-02-23T03:31:57.873Z,62.49
2019-02-23T03:34:27.212Z,62.82
2019-02-23T03:36:56.641Z,62.74
2019-02-23T03:39:25.940Z,62.63
2019-02-23T03:41:55.228Z,62.34
2019-02-23T03:44:24.559Z,62.36
2019-02-23T03:46:53.861Z,62.90
2019-02-23T03:49:23.151Z,62.83
2019-02-23T03:51:52.540Z,62.72
2019-02-23T03:54:21.908Z,62.58
2019-02-23T03:56:51.280Z,62.15
2019-02-23T03:59:20.604Z,62.17
2019-02-23T04:01:49.955Z,62.33
2019-02-23T04:04:19.311Z,62.80
2019-02-23T04:06:48.640Z,62.47
2019-02-23T04:09:17.915Z,62.43
2019-02-23T04:11:47.207Z,62.64
2019-02-23T04:14:16.500Z,62.80
2019-02-23T04:16:45.873Z,61.93
2019-02-23T04:19:15.232Z,62.14
2019-02-23T04:21:44.591Z,62.13
2019-02-23T04:24:13.917Z,62.13
2019-02-23T04:26:43.284Z,61.76
2019-02-23T04:29:12.652Z,61.61
2019-02-23T04:31:41.936Z,61.73
2019-02-23T04:34:11.278Z,61.57
2019-02-23T04:36:40.589Z,61.20
2019-02-23T04:39:10.059Z,61.58
2019-02-23T04:41:39.406Z,62.02
2019-02-23T04:44:08.696Z,62.34
2019-02-23T04:46:38.125Z,61.90
2019-02-23T04:49:07.524Z,62.05
2019-02-23T04:51:36.876Z,61.84
2019-02-23T04:54:06.244Z,62.20
2019-02-23T04:56:36.526Z,61.79
2019-02-23T04:59:05.903Z,61.95
2019-02-23T05:01:35.702Z,61.87
2019-02-23T05:04:11.688Z,61.90
2019-02-23T05:06:40.995Z,61.98
2019-02-23T05:09:10.320Z,61.78
2019-02-23T05:11:40.334Z,61.68
2019-02-23T05:14:09.678Z,61.71
2019-02-23T05:16:39.089Z,61.80
2019-02-23T05:19:08.454Z,62.16
2019-02-23T05:21:37.722Z,62.21
2019-02-23T05:24:07.115Z,62.27
2019-02-23T05:26:36.456Z,61.75
2019-02-23T05:29:05.840Z,62.30
2019-02-23T05:31:35.185Z,62.78
2019-02-23T05:34:04.508Z,63.30
2019-02-23T05:36:34.695Z,64.20
2019-02-23T05:39:05.284Z,64.25
2019-02-23T05:41:34.710Z,63.84
2019-02-23T05:44:04.028Z,63.75
2019-02-23T05:46:33.352Z,63.46
2019-02-23T05:49:02.648Z,63.44
2019-02-23T05:51:38.787Z,63.34
2019-02-23T05:54:01.382Z,63.31
2019-02-23T05:56:30.713Z,63.55
2019-02-23T05:59:00.051Z,63.39
2019-02-23T06:01:29.353Z,63.29
2019-02-23T06:03:58.734Z,64.30
2019-02-23T06:06:28.048Z,64.74
2019-02-23T06:08:58.401Z,64.49
2019-02-23T06:11:27.812Z,64.97
2019-02-23T06:13:57.097Z,64.56
2019-02-23T06:16:26.465Z,64.61
2019-02-23T06:18:55.772Z,64.89
2019-02-23T06:21:26.180Z,65.41
2019-02-23T06:23:55.524Z,64.79
2019-02-23T06:26:24.821Z,65.09
2019-02-23T06:28:54.116Z,65.41
2019-02-23T06:31:23.510Z,65.35
2019-02-23T06:33:52.795Z,64.78
2019-02-23T06:36:22.082Z,64.75
2019-02-23T06:38:51.488Z,65.14
2019-02-23T06:41:20.833Z,65.07
2019-02-23T06:43:50.192Z,65.47
2019-02-23T06:46:19.496Z,65.23
2019-02-23T06:48:48.925Z,65.34
2019-02-23T06:51:18.192Z,65.39
2019-02-23T06:53:47.567Z,65.49
2019-02-23T06:56:16.877Z,65.65
2019-02-23T06:58:46.185Z,65.15
2019-02-23T07:01:15.565Z,65.43
2019-02-23T07:03:51.581Z,65.97
2019-02-23T07:06:21.966Z,65.97
2019-02-23T07:08:51.831Z,66.02
2019-02-23T07:11:21.181Z,66.27
2019-02-23T07:13:57.136Z,66.24
2019-02-23T07:16:26.465Z,66.29
2019-02-23T07:18:55.766Z,66.81
2019-02-23T07:21:25.149Z,66.63
2019-02-23T07:23:54.556Z,66.37
2019-02-23T07:26:23.888Z,66.68
2019-02-23T07:28:53.662Z,66.02
2019-02-23T07:31:22.992Z,66.01
2019-02-23T07:33:52.324Z,65.55
2019-02-23T07:36:21.737Z,65.99
2019-02-23T07:38:51.093Z,65.47
2019-02-23T07:41:20.412Z,65.51
2019-02-23T07:43:49.773Z,65.37
2019-02-23T07:46:19.072Z,65.06
2019-02-23T07:48:48.417Z,65.25
2019-02-23T07:51:17.906Z,64.44
2019-02-23T07:53:47.235Z,64.09
2019-02-23T07:56:16.515Z,63.81
2019-02-23T07:58:45.824Z,63.45
2019-02-23T08:01:15.143Z,62.99
2019-02-23T08:03:44.477Z,62.59
2019-02-23T08:06:13.824Z,62.43
2019-02-23T08:08:43.143Z,61.56
2019-02-23T08:11:12.509Z,61.25
2019-02-23T08:13:41.855Z,60.87
2019-02-23T08:16:12.193Z,59.82
2019-02-23T08:18:41.552Z,59.99
2019-02-23T08:21:10.912Z,60.46
2019-02-23T08:23:40.956Z,60.33
2019-02-23T08:26:10.378Z,59.29
2019-02-23T08:28:39.852Z,59.11
2019-02-23T08:31:09.195Z,59.93
2019-02-23T08:33:38.520Z,59.83
2019-02-23T08:36:07.931Z,59.08
2019-02-23T08:38:37.892Z,58.66
2019-02-23T08:41:07.167Z,58.15
2019-02-23T08:43:36.485Z,58.01
2019-02-23T08:46:05.848Z,57.57
2019-02-23T08:48:35.982Z,57.71
2019-02-23T08:51:05.310Z,57.21
2019-02-23T08:53:34.648Z,57.29
2019-02-23T08:56:04.031Z,57.42
2019-02-23T08:58:33.372Z,55.88
2019-02-23T09:01:02.750Z,57.03
2019-02-23T09:03:32.257Z,56.08
2019-02-23T09:06:02.152Z,56.65
2019-02-23T09:08:32.172Z,56.40
2019-02-23T09:11:02.101Z,56.50
2019-02-23T09:13:31.456Z,55.61
2019-02-23T09:16:00.779Z,56.75
2019-02-23T09:18:30.156Z,56.26
2019-02-23T09:20:59.568Z,56.19
2019-02-23T09:23:28.909Z,56.93
2019-02-23T09:25:58.193Z,56.23
2019-02-23T09:28:27.505Z,55.23
2019-02-23T09:30:56.872Z,56.41
2019-02-23T09:33:26.183Z,56.02
2019-02-23T09:35:55.483Z,54.68
2019-02-23T09:38:24.787Z,54.88
2019-02-23T09:40:54.116Z,54.87
2019-02-23T09:43:23.437Z,55.67
2019-02-23T09:45:52.724Z,54.17
2019-02-23T09:48:22.063Z,54.43
2019-02-23T09:50:52.020Z,53.79
2019-02-23T09:53:21.499Z,53.21
2019-02-23T09:55:50.868Z,54.12
2019-02-23T09:58:21.152Z,57.74
2019-02-23T10:00:50.546Z,52.82
2019-02-23T10:03:19.925Z,53.42
2019-02-23T10:05:49.273Z,54.44
2019-02-23T10:08:18.660Z,53.57
2019-02-23T10:10:48.109Z,53.14
2019-02-23T10:13:17.449Z,52.31
2019-02-23T10:15:46.795Z,51.08
2019-02-23T10:18:16.109Z,50.30
2019-02-23T10:20:45.460Z,51.33
2019-02-23T10:23:22.111Z,50.79
2019-02-23T10:25:44.168Z,50.33
2019-02-23T10:28:13.554Z,50.09
2019-02-23T10:30:43.017Z,49.35
2019-02-23T10:33:12.406Z,49.65
2019-02-23T10:35:41.812Z,48.87
2019-02-23T10:38:11.117Z,48.83
2019-02-23T10:40:40.459Z,49.00
2019-02-23T10:43:10.477Z,47.95
2019-02-23T10:45:39.893Z,48.42
2019-02-23T10:48:09.348Z,48.19
2019-02-23T10:50:38.717Z,49.52
2019-02-23T10:53:08.040Z,48.53
2019-02-23T10:55:37.398Z,48.53
2019-02-23T10:58:06.812Z,48.05
2019-02-23T11:00:36.104Z,48.69
2019-02-23T11:03:05.492Z,47.87
2019-02-23T11:05:34.844Z,47.83
2019-02-23T11:08:04.216Z,48.02
2019-02-23T11:10:33.582Z,47.12
2019-02-23T11:13:02.954Z,46.55
2019-02-23T11:15:32.257Z,46.67
2019-02-23T11:18:03.414Z,45.23
2019-02-23T11:20:32.923Z,46.02
2019-02-23T11:23:02.270Z,46.52
2019-02-23T11:25:31.572Z,44.70
2019-02-23T11:28:01.096Z,45.08
2019-02-23T11:30:30.412Z,43.68
2019-02-23T11:32:59.732Z,43.61
2019-02-23T11:35:29.061Z,44.30
2019-02-23T11:37:58.384Z,44.27
2019-02-23T11:40:28.356Z,43.80
2019-02-23T11:42:57.735Z,43.81
2019-02-23T11:45:27.375Z,42.78
2019-02-23T11:47:56.740Z,42.48
2019-02-23T11:50:26.045Z,42.75
2019-02-23T11:52:55.329Z,41.97
2019-02-23T11:55:24.704Z,41.62
2019-02-23T11:57:54.007Z,40.29
2019-02-23T12:00:23.597Z,40.04
2019-02-23T12:02:53.050Z,39.37
2019-02-23T12:05:22.378Z,38.93
2019-02-23T12:07:51.765Z,38.44
2019-02-23T12:10:21.063Z,39.69
2019-02-23T12:12:50.444Z,38.05
2019-02-23T12:15:19.780Z,37.28
2019-02-23T12:17:49.105Z,36.90
2019-02-23T12:20:18.446Z,37.90
2019-02-23T12:22:47.804Z,35.46
2019-02-23T12:25:17.841Z,35.05
2019-02-23T12:27:47.693Z,34.92
2019-02-23T12:30:17.008Z,35.28
2019-02-23T12:32:46.407Z,34.68
2019-02-23T12:35:15.768Z,33.41
2019-02-23T12:37:45.089Z,33.09
2019-02-23T12:40:14.585Z,33.28
2019-02-23T12:42:43.944Z,33.28
2019-02-23T12:45:13.372Z,32.52
2019-02-23T12:47:42.763Z,32.57
2019-02-23T12:50:12.351Z,33.09
2019-02-23T12:52:41.672Z,32.15
2019-02-23T12:55:11.088Z,31.72
2019-02-23T12:57:40.444Z,31.65
2019-02-23T13:00:12.171Z,32.24
2019-02-23T13:02:41.496Z,31.28
2019-02-23T13:05:10.825Z,31.29
2019-02-23T13:07:40.589Z,31.62
2019-02-23T13:10:11.482Z,31.86
2019-02-23T13:12:56.905Z,31.32
2019-02-23T13:15:44.179Z,31.09
2019-02-23T13:21:16.969Z,30.32
2019-02-23T13:26:03.669Z,30.93
2019-02-23T13:28:44.902Z,30.69
2019-02-23T13:31:47.400Z,30.33
2019-02-23T13:35:39.025Z,30.33
2019-02-23T13:42:30.412Z,29.86
2019-02-23T13:45:13.208Z,29.84
2019-02-23T13:48:40.310Z,29.74
2019-02-23T13:54:38.656Z,28.76
2019-02-23T14:00:27.882Z,28.55
2019-02-23T14:05:17.782Z,28.41
2019-02-23T14:10:09.525Z,28.37
2019-02-23T14:12:55.845Z,28.41
2019-02-23T14:16:35.119Z,27.86
2019-02-23T14:20:09.451Z,28.11
2019-02-23T14:25:01.173Z,27.73
2019-02-23T14:32:01.820Z,27.26
2019-02-23T14:35:22.235Z,27.34
2019-02-23T14:39:07.059Z,26.14
2019-02-23T14:41:56.211Z,26.49
2019-02-23T14:44:43.531Z,24.92
2019-02-23T14:49:40.133Z,23.55
2019-02-23T14:52:34.726Z,23.03
2019-02-23T14:55:29.670Z,21.56
2019-02-23T14:58:35.136Z,21.61
2019-02-23T15:01:18.930Z,21.85
2019-02-23T15:06:13.647Z,21.97
2019-02-23T15:11:20.551Z,20.83
2019-02-23T15:16:17.155Z,20.50
2019-02-23T15:19:29.785Z,21.60
2019-02-23T15:24:52.188Z,20.98
2019-02-23T15:27:45.379Z,21.47
2019-02-23T15:30:40.272Z,21.70
2019-02-23T15:33:56.881Z,21.82
2019-02-23T15:36:43.466Z,23.11
2019-02-23T15:41:45.313Z,23.43
2019-02-23T15:46:41.981Z,25.43
2019-02-23T15:49:27.703Z,25.99
2019-02-23T15:51:57.159Z,27.24
2019-02-23T15:54:29.120Z,27.79
2019-02-23T15:56:55.881Z,27.51
2019-02-23T15:59:25.334Z,28.53
2019-02-23T16:01:54.705Z,28.55
2019-02-23T16:04:24.160Z,28.83
2019-02-23T16:06:53.582Z,28.80
2019-02-23T16:09:22.944Z,28.91
2019-02-23T16:11:52.285Z,29.26
2019-02-23T16:14:21.613Z,29.36
2019-02-23T16:16:51.554Z,30.01
2019-02-23T16:19:21.876Z,29.63
2019-02-23T16:21:52.942Z,31.02
2019-02-23T16:24:21.847Z,30.98
2019-02-23T16:26:51.144Z,30.89
2019-02-23T16:29:20.520Z,30.65
2019-02-23T16:31:49.923Z,31.21
2019-02-23T16:34:19.367Z,31.57
2019-02-23T16:36:48.684Z,31.79
2019-02-23T16:39:18.596Z,32.16
2019-02-23T16:41:48.073Z,32.04
2019-02-23T16:44:17.439Z,32.77
2019-02-23T16:46:46.776Z,32.42
2019-02-23T16:49:16.224Z,32.79
2019-02-23T16:51:45.492Z,32.47
2019-02-23T16:54:14.809Z,33.47
2019-02-23T16:56:44.190Z,35.29
2019-02-23T16:59:13.575Z,34.66
2019-02-23T17:01:42.959Z,35.80
2019-02-23T17:04:12.400Z,36.00
2019-02-23T17:06:41.789Z,36.37
2019-02-23T17:09:11.109Z,35.86
2019-02-23T17:11:40.516Z,36.78
2019-02-23T17:14:09.944Z,37.48
2019-02-23T17:16:39.280Z,37.61
2019-02-23T17:19:08.584Z,37.21
2019-02-23T17:21:37.890Z,36.75
2019-02-23T17:24:07.195Z,37.60
2019-02-23T17:26:36.976Z,37.42
2019-02-23T17:29:05.898Z,38.48
2019-02-23T17:31:35.227Z,38.47
2019-02-23T17:34:04.599Z,37.89
2019-02-23T17:36:33.908Z,36.04
2019-02-23T17:39:03.324Z,36.22
2019-02-23T17:41:32.662Z,37.19
2019-02-23T17:44:02.050Z,37.00
2019-02-23T17:46:31.376Z,36.91
2019-02-23T17:49:01.558Z,36.92
2019-02-23T17:51:30.919Z,36.43
2019-02-23T17:54:00.278Z,36.83
2019-02-23T17:56:30.153Z,36.86
2019-02-23T17:58:59.455Z,36.97
2019-02-23T18:01:28.898Z,36.41
2019-02-23T18:03:58.236Z,36.61
2019-02-23T18:06:27.560Z,36.81
2019-02-23T18:08:56.984Z,37.13
2019-02-23T18:11:26.311Z,36.96
2019-02-23T18:13:56.928Z,37.01
2019-02-23T18:16:26.188Z,37.75
2019-02-23T18:18:55.483Z,37.00
2019-02-23T18:21:24.930Z,38.26
2019-02-23T18:23:54.230Z,38.03
2019-02-23T18:26:23.589Z,37.53
2019-02-23T18:28:52.942Z,37.92
2019-02-23T18:31:22.304Z,38.04
2019-02-23T18:33:51.648Z,38.24
2019-02-23T18:36:20.980Z,38.45
2019-02-23T18:38:50.774Z,38.75
2019-02-23T18:41:20.137Z,38.45
2019-02-23T18:43:49.439Z,38.83
2019-02-23T18:46:18.756Z,38.74
2019-02-23T18:48:48.097Z,39.10
2019-02-23T18:51:17.376Z,38.71
2019-02-23T18:53:46.739Z,38.96
2019-02-23T18:56:16.119Z,38.93
2019-02-23T18:58:45.440Z,39.57
2019-02-23T19:01:14.810Z,39.48
2019-02-23T19:03:44.163Z,39.24
2019-02-23T19:06:13.501Z,39.71
2019-02-23T19:08:42.876Z,39.02
2019-02-23T19:11:12.328Z,39.50
2019-02-23T19:13:42.285Z,39.18
2019-02-23T19:16:11.567Z,39.45
2019-02-23T19:18:40.913Z,39.57
2019-02-23T19:21:10.285Z,39.68
2019-02-23T19:23:39.611Z,39.64
2019-02-23T19:26:08.948Z,39.60
2019-02-23T19:28:43.183Z,39.71
2019-02-23T19:31:07.643Z,39.87
2019-02-23T19:33:37.020Z,40.04
2019-02-23T19:36:06.319Z,39.92
2019-02-23T19:38:35.659Z,40.04
2019-02-23T19:41:04.978Z,40.62
2019-02-23T19:43:34.939Z,40.28
2019-02-23T19:46:04.279Z,40.27
2019-02-23T19:48:33.593Z,40.69
2019-02-23T19:51:06.836Z,40.72
2019-02-23T19:53:36.184Z,40.93
2019-02-23T19:56:05.520Z,41.12
2019-02-23T19:58:34.806Z,40.65
2019-02-23T20:01:04.138Z,40.80
2019-02-23T20:03:33.456Z,41.07
2019-02-23T20:06:02.839Z,40.67
2019-02-23T20:08:32.579Z,40.46
2019-02-23T20:11:01.887Z,40.64
2019-02-23T20:13:31.216Z,39.96
2019-02-23T20:16:00.591Z,39.68
2019-02-23T20:18:29.863Z,39.70
2019-02-23T20:20:59.232Z,39.83
2019-02-23T20:23:28.500Z,39.91
2019-02-23T20:25:57.842Z,40.95
2019-02-23T20:28:27.291Z,40.86
2019-02-23T20:30:56.664Z,40.61
2019-02-23T20:33:25.971Z,41.12
2019-02-23T20:35:55.327Z,41.02
2019-02-23T20:38:24.624Z,40.96
2019-02-23T20:40:53.968Z,40.90
2019-02-23T20:43:23.285Z,41.88
2019-02-23T20:45:52.591Z,41.92
2019-02-23T20:48:21.940Z,41.62
2019-02-23T20:50:52.188Z,41.79
2019-02-23T20:53:21.588Z,42.36
2019-02-23T20:55:51.800Z,42.31
2019-02-23T20:58:21.138Z,42.54
2019-02-23T21:00:50.488Z,41.34
2019-02-23T21:03:20.615Z,41.91
2019-02-23T21:05:50.009Z,41.87
2019-02-23T21:08:19.324Z,41.93
2019-02-23T21:10:48.597Z,42.18
2019-02-23T21:13:17.905Z,42.58
2019-02-23T21:15:47.188Z,42.08
2019-02-23T21:18:16.480Z,42.71
2019-02-23T21:20:45.884Z,42.49
2019-02-23T21:23:15.208Z,42.88
2019-02-23T21:25:45.152Z,42.37
2019-02-23T21:28:14.431Z,42.30
2019-02-23T21:30:43.759Z,42.97
2019-02-23T21:33:13.043Z,42.19
2019-02-23T21:35:42.355Z,42.59
2019-02-23T21:38:11.889Z,42.42
2019-02-23T21:40:41.232Z,42.62
2019-02-23T21:43:10.579Z,42.60
2019-02-23T21:45:40.088Z,43.19
2019-02-23T21:48:09.414Z,42.55
2019-02-23T21:50:38.691Z,42.76
2019-02-23T21:53:08.054Z,42.83
2019-02-23T21:55:37.452Z,43.00
2019-02-23T21:58:06.737Z,43.86
2019-02-23T22:00:36.111Z,44.10
2019-02-23T22:03:07.081Z,44.28
2019-02-23T22:05:35.509Z,44.38
2019-02-23T22:08:04.910Z,44.87
2019-02-23T22:10:34.244Z,44.39
2019-02-23T22:13:03.634Z,44.77
2019-02-23T22:18:11.962Z,45.15
2019-02-23T22:20:41.316Z,45.68
2019-02-23T22:23:10.709Z,45.35
2019-02-23T22:25:40.043Z,45.64
2019-02-23T22:28:09.532Z,44.98
2019-02-23T22:30:38.829Z,45.13
2019-02-23T22:33:11.189Z,45.28
2019-02-23T22:35:40.636Z,45.23
2019-02-23T22:38:09.985Z,44.56
2019-02-23T22:40:39.304Z,45.15
2019-02-23T22:43:08.645Z,44.92
2019-02-23T22:45:38.010Z,44.68
2019-02-23T22:48:08.140Z,44.74
2019-02-23T22:50:37.540Z,44.56
2019-02-23T22:53:06.965Z,44.53
2019-02-23T22:55:36.276Z,44.57
2019-02-23T22:58:05.636Z,44.05
2019-02-23T23:00:41.129Z,44.32
2019-02-23T23:03:10.492Z,44.03
2019-02-23T23:05:39.848Z,43.96
2019-02-23T23:08:09.838Z,43.38
2019-02-23T23:10:39.140Z,43.66
2019-02-23T23:13:08.521Z,43.66
2019-02-23T23:15:38.758Z,43.77
2019-02-23T23:18:08.124Z,43.91
2019-02-23T23:20:37.512Z,43.54
2019-02-23T23:23:07.832Z,43.54
2019-02-23T23:25:37.195Z,43.18
2019-02-23T23:28:06.485Z,43.25
2019-02-23T23:30:35.977Z,43.01
2019-02-23T23:33:05.309Z,42.88
2019-02-23T23:35:36.210Z,43.86
2019-02-23T23:38:05.761Z,43.49
2019-02-23T23:40:35.074Z,43.75
2019-02-23T23:43:05.343Z,44.32
2019-02-23T23:45:34.606Z,44.36
2019-02-23T23:48:03.864Z,44.39
2019-02-23T23:50:33.214Z,44.57
2019-02-23T23:53:03.300Z,44.39
2019-02-23T23:55:32.616Z,43.81
2019-02-23T23:58:01.992Z,44.16
